KLITKJXI

Guest
Details From KLIT - Little Rock Adams Field
To KJXI - FOX STEPHENS FLD GILMER MUNI
Flight Number -
Tags generated
Created
Modified
Stats Distance 183 nm / 338 km
Max Altitude 18,300 ft / 5,578 m
Waypoints 3
Social Downloads 0
Likes 0
Share VATSIM

Download

Looking for another format? Having issues loading an existing format? Contact us
Advertisement - Login to hide

Notes

Basic altitude profile: - Ascent Rate: 3000ft/min - Ascent Speed: 250kts - Cruise Altitude: 24000ft - Cruise Speed: 420kts - Descent Rate: 2000ft/min - Descent Speed: 250kts Options: - Use NATs: yes - Use PACOTS: yes - Use low airways: yes - Use high airways: yes

Route

KLIT HOSES KJXI

ID Type Via Altitude Latitude Longitude Leg Dist Tot Dist Heading (true) Name
O KLIT APT - 0 ft / 0 m 34.72942˚ -92.22548˚ - 0 nm - Little Rock Adams Field
HOSES FIX - 18,300 ft / 5,578 m 33.65162˚ -93.68064˚ 97 nm 97 nm 229° / 228° -
O KJXI APT - 0 ft / 0 m 32.69803˚ -94.94885˚ 85 nm 182 nm 228° / 228° FOX STEPHENS FLD GILMER MUNI

Altitude Profile

Advertisement - Login to hide

Weather


0- 5 10 15 20 25 30 35+ Temperature / ° C

Clouds and Precipitation
Forecast for 2017-12-15 00:00 UTC. Updated 2 hours ago

Ground ~20,000 ft ~40,000 ft Winds

KLIT

Details ICAO KLIT (LIT)
Name Little Rock Adams Field
Region United States
Timezone America/Chicago (UTC-6.0)
Stats Elevation 262 ft / 80 m (AMSL)
Location 34.729415° -92.225482°
Runways 3
Magnetic Variation 0.245° E

METAR

KLIT 142353Z 01010KT 10SM CLR 08/M03 A3008 RMK AO2 SLP188 T00781028 10128 20056 52020

Decode

TAF

TAF KLIT 142320Z 1500/1524 01006KT P6SM SCT040 SCT120 FM150300 VRB02KT P6SM BKN040 BKN120 FM151500 28006KT P6SM SCT120 SCT250

Decode

Departure Runways

ID Width Length Bearing (true) Bearing (mag) Surface Threshold Offset Overrun Length
04L 150 ft / 46 m 8,274 ft / 2,522 m 46.37° 46.13° Concrete 297 ft / 91 m 0 ft / 0 m
04R 150 ft / 46 m 7,201 ft / 2,195 m 46.39° 46.15° Concrete 0 ft / 0 m 0 ft / 0 m
18 150 ft / 46 m 5,137 ft / 1,566 m 181.50° 181.26° Concrete 100 ft / 30 m 0 ft / 0 m
22L 150 ft / 46 m 7,201 ft / 2,195 m 226.40° 226.16° Concrete 0 ft / 0 m 0 ft / 0 m
22R 150 ft / 46 m 8,274 ft / 2,522 m 226.38° 226.14° Concrete 0 ft / 0 m 0 ft / 0 m
36 150 ft / 46 m 5,137 ft / 1,566 m 1.50° 1.26° Concrete 100 ft / 30 m 0 ft / 0 m

KJXI

Details ICAO KJXI
Name FOX STEPHENS FLD GILMER MUNI
Region United States
Timezone America/Chicago (UTC-6.0)
Stats Elevation 415 ft / 126 m (AMSL)
Location 32.698031° -94.948847°
Runways 1
Magnetic Variation 2.145° E

METAR

KJXI 150035Z AUTO 32008G14KT 10SM CLR 12/M02 A3008 RMK AO2 T01151022

Decode

TAF

Not found

Destination Runways

ID Width Length Bearing (true) Bearing (mag) Surface Threshold Offset Overrun Length
18 60 ft / 18 m 4,012 ft / 1,223 m 180.25° 178.11° Asphalt 0 ft / 0 m 0 ft / 0 m
36 60 ft / 18 m 4,012 ft / 1,223 m 0.25° 358.11° Asphalt 0 ft / 0 m 0 ft / 0 m

Popular Alternatives